Time;durP1;ratioP1;P1;durP2;ratioP2;P2;SDS_P1;SDS_P2;PMS_P1;PMS_P2;Temp;Humidity;BMP_temperature;BMP_pressure;BME280_temperature;BME280_humidity;BME280_pressure;Samples;Min_cycle;Max_cycle;Signal;HPM_P1;HPM_P2
2022/10/30 00:00:19;;;;;;;23.85;11.32;;;14.50;99.90;;;;;;4957348;28;20130;-63
2022/10/30 00:02:46;;;;;;;23.05;10.93;;;14.90;99.90;;;;;;4924466;29;20082;-63
2022/10/30 00:05:12;;;;;;;22.77;11.68;;;16.30;99.90;;;;;;4961265;28;20539;-63
2022/10/30 00:07:37;;;;;;;24.73;10.90;;;15.90;99.90;;;;;;4953442;28;20059;-64
2022/10/30 00:10:03;;;;;;;24.77;10.77;;;14.60;99.90;;;;;;4958625;28;20173;-64
2022/10/30 00:12:29;;;;;;;21.95;10.40;;;16.40;99.90;;;;;;4968165;28;20039;-63
2022/10/30 00:14:54;;;;;;;20.38;11.05;;;14.70;99.90;;;;;;4970106;28;20464;-63
2022/10/30 00:17:20;;;;;;;25.77;11.98;;;16.10;99.90;;;;;;4950818;28;20055;-63
2022/10/30 00:19:45;;;;;;;20.13;10.75;;;15.70;99.90;;;;;;4955926;28;20042;-63
2022/10/30 00:22:11;;;;;;;30.77;11.38;;;15.20;99.90;;;;;;4962117;28;20125;-63
2022/10/30 00:24:36;;;;;;;25.65;11.07;;;14.70;99.90;;;;;;4966606;28;20042;-63
2022/10/30 00:27:02;;;;;;;31.08;11.93;;;14.60;99.90;;;;;;4964718;28;20560;-63
2022/10/30 00:29:28;;;;;;;24.55;12.75;;;15.00;99.90;;;;;;4949874;28;20776;-64
2022/10/30 00:31:53;;;;;;;25.13;11.90;;;16.30;99.90;;;;;;4962744;28;20505;-63
2022/10/30 00:34:19;;;;;;;25.98;11.75;;;16.50;99.90;;;;;;4950576;28;20073;-63
2022/10/30 00:36:45;;;;;;;24.27;12.07;;;16.50;99.90;;;;;;4966707;28;20078;-64
2022/10/30 00:39:10;;;;;;;20.02;11.13;;;16.50;99.90;;;;;;4963891;28;20078;-64
2022/10/30 00:41:38;;;;;;;22.40;12.27;;;14.90;99.90;;;;;;4958562;28;20400;-64
2022/10/30 00:44:31;;;;;;;24.15;11.52;;;16.50;99.90;;;;;;4944935;28;20070;-64
2022/10/30 00:47:03;;;;;;;23.70;11.43;;;16.30;99.90;;;;;;4959580;28;20075;-64
2022/10/30 00:49:32;;;;;;;23.08;12.15;;;14.60;99.90;;;;;;4968587;28;20067;-64
2022/10/30 00:51:58;;;;;;;24.73;11.35;;;15.00;99.90;;;;;;4958304;28;20035;-64
2022/10/30 00:54:24;;;;;;;23.88;11.07;;;16.00;99.90;;;;;;4964008;28;20038;-63
2022/10/30 00:56:50;;;;;;;30.75;11.82;;;14.50;99.90;;;;;;4970418;28;20050;-64
2022/10/30 00:59:21;;;;;;;28.50;12.57;;;14.60;99.90;;;;;;4965738;28;20138;-65
2022/10/30 01:01:47;;;;;;;28.33;12.10;;;14.50;99.90;;;;;;4958495;28;20114;-63
2022/10/30 01:04:15;;;;;;;28.63;12.15;;;15.80;99.90;;;;;;4953192;28;20122;-63
2022/10/30 01:06:44;;;;;;;27.48;12.02;;;16.40;99.90;;;;;;4967347;28;20046;-63
2022/10/30 01:09:09;;;;;;;24.95;10.95;;;16.20;99.90;;;;;;4959410;28;20039;-64
2022/10/30 01:11:35;;;;;;;20.30;11.02;;;15.50;99.90;;;;;;4942237;28;20431;-63
2022/10/30 01:14:05;;;;;;;24.48;12.18;;;15.50;99.90;;;;;;4966104;28;20042;-64
2022/10/30 01:16:43;;;;;;;24.58;11.82;;;15.90;99.90;;;;;;4959972;28;20552;-64
2022/10/30 01:19:19;;;;;;;29.25;12.02;;;15.80;99.90;;;;;;4958898;28;20481;-63
2022/10/30 01:21:51;;;;;;;29.10;12.13;;;16.20;99.90;;;;;;4947815;28;20458;-63
2022/10/30 01:24:42;;;;;;;20.85;11.35;;;16.30;99.90;;;;;;4967864;28;20568;-64
2022/10/30 01:27:46;;;;;;;24.35;11.82;;;14.60;99.90;;;;;;4969366;28;20198;-63
2022/10/30 01:30:30;;;;;;;22.00;10.77;;;16.30;99.90;;;;;;4955466;28;20082;-64
2022/10/30 01:33:33;;;;;;;25.23;11.30;;;14.90;99.90;;;;;;4960689;28;20178;-64
2022/10/30 01:36:17;;;;;;;33.72;11.85;;;14.50;99.90;;;;;;4965990;28;20039;-64
2022/10/30 01:39:00;;;;;;;19.65;10.23;;;14.70;99.90;;;;;;4952996;28;20055;-63
2022/10/30 01:41:26;;;;;;;27.23;11.75;;;14.70;99.90;;;;;;4973584;28;20063;-64
2022/10/30 01:43:56;;;;;;;26.25;11.95;;;15.90;99.90;;;;;;4963088;28;20077;-63
2022/10/30 01:46:25;;;;;;;28.00;11.57;;;16.50;99.90;;;;;;4958124;28;20039;-63
2022/10/30 01:48:58;;;;;;;24.30;10.43;;;15.10;99.90;;;;;;4955489;28;20039;-63
2022/10/30 01:51:42;;;;;;;23.33;10.68;;;16.90;99.90;;;;;;4968321;28;20050;-63
2022/10/30 01:54:36;;;;;;;24.95;10.10;;;16.50;99.90;;;;;;4956758;28;20620;-64
2022/10/30 01:57:22;;;;;;;31.60;10.88;;;15.30;99.90;;;;;;4969339;28;20043;-64
2022/10/30 01:59:57;;;;;;;29.25;10.43;;;16.30;99.90;;;;;;4955435;28;20049;-63
2022/10/30 02:02:23;;;;;;;24.42;11.05;;;15.70;99.90;;;;;;4967525;28;20077;-63
2022/10/30 02:04:49;;;;;;;23.30;11.25;;;15.00;99.90;;;;;;4969155;28;20528;-64
2022/10/30 02:07:14;;;;;;;23.42;11.80;;;15.20;99.90;;;;;;4966005;28;20529;-64
2022/10/30 02:09:40;;;;;;;22.83;10.48;;;14.80;99.90;;;;;;4969746;28;20038;-63
2022/10/30 02:12:07;;;;;;;28.15;11.48;;;16.60;99.90;;;;;;4967204;28;20039;-63
2022/10/30 02:14:38;;;;;;;20.23;10.25;;;14.70;99.90;;;;;;4959778;28;20043;-64
2022/10/30 02:17:05;;;;;;;31.02;13.15;;;14.80;99.90;;;;;;4955321;28;20559;-65
2022/10/30 02:19:31;;;;;;;30.00;12.95;;;16.60;99.90;;;;;;4948157;28;20047;-64
2022/10/30 02:21:57;;;;;;;37.10;12.70;;;16.60;99.90;;;;;;4960406;28;20049;-63
2022/10/30 02:24:22;;;;;;;35.15;12.73;;;15.70;99.90;;;;;;4963018;28;20520;-64
2022/10/30 02:26:48;;;;;;;23.77;12.10;;;14.60;99.90;;;;;;4967106;28;20043;-63
2022/10/30 02:29:13;;;;;;;26.88;11.90;;;16.10;99.90;;;;;;4958095;28;20039;-64
2022/10/30 02:31:39;;;;;;;22.67;11.50;;;14.60;99.90;;;;;;4964853;28;20050;-63
2022/10/30 02:34:05;;;;;;;23.30;12.73;;;14.70;99.90;;;;;;4965781;28;20382;-63
2022/10/30 02:36:30;;;;;;;28.67;11.85;;;16.60;99.90;;;;;;4959222;28;20054;-65
2022/10/30 02:38:56;;;;;;;26.65;11.90;;;16.30;99.90;;;;;;4949013;28;20477;-65
2022/10/30 02:41:22;;;;;;;29.08;12.13;;;14.50;99.90;;;;;;4959520;28;20079;-65
2022/10/30 02:43:50;;;;;;;31.15;12.88;;;16.60;99.90;;;;;;4959290;28;20047;-63
2022/10/30 02:46:16;;;;;;;24.98;11.63;;;16.10;99.90;;;;;;4942423;28;20097;-64
2022/10/30 02:48:41;;;;;;;22.15;11.75;;;14.90;99.90;;;;;;4972237;28;20125;-64
2022/10/30 02:51:07;;;;;;;30.63;11.80;;;16.40;99.90;;;;;;4941525;29;20137;-64
2022/10/30 02:53:33;;;;;;;27.67;10.93;;;15.10;99.90;;;;;;4959275;28;20064;-63
2022/10/30 02:56:03;;;;;;;26.00;11.73;;;16.70;99.90;;;;;;4954851;28;20066;-63
2022/10/30 02:58:29;;;;;;;33.67;12.05;;;14.90;99.90;;;;;;4969738;28;20030;-63
2022/10/30 03:00:54;;;;;;;24.98;11.32;;;16.70;99.90;;;;;;4969743;28;20038;-64
2022/10/30 03:03:20;;;;;;;29.23;11.80;;;16.60;99.90;;;;;;4970199;28;20034;-64
2022/10/30 03:05:45;;;;;;;27.17;11.48;;;15.00;99.90;;;;;;4969626;28;20065;-63
2022/10/30 03:08:11;;;;;;;26.50;11.07;;;14.90;99.90;;;;;;4971328;28;20070;-64
2022/10/30 03:10:36;;;;;;;28.40;10.63;;;15.30;99.90;;;;;;4970066;28;20067;-64
2022/10/30 03:13:02;;;;;;;29.42;10.85;;;16.40;99.90;;;;;;4939982;29;20553;-63
2022/10/30 03:15:27;;;;;;;35.60;12.35;;;15.50;99.90;;;;;;4957565;28;20047;-64
2022/10/30 03:17:53;;;;;;;28.85;10.73;;;15.80;99.90;;;;;;4956085;28;20051;-64
2022/10/30 03:20:19;;;;;;;30.67;11.40;;;15.40;99.90;;;;;;4963365;28;20031;-64
2022/10/30 03:22:44;;;;;;;29.05;10.77;;;17.50;99.90;;;;;;4966482;28;20081;-63
2022/10/30 03:25:10;;;;;;;35.88;11.25;;;16.70;99.90;;;;;;4960536;28;20118;-64
2022/10/30 03:27:35;;;;;;;30.67;11.65;;;16.10;99.90;;;;;;4941739;28;20042;-63
2022/10/30 03:30:01;;;;;;;31.95;11.80;;;15.80;99.90;;;;;;4971432;28;20475;-64
2022/10/30 03:32:26;;;;;;;31.20;11.52;;;16.70;99.90;;;;;;4966719;28;20035;-64
2022/10/30 03:34:52;;;;;;;29.30;12.30;;;17.90;99.90;;;;;;4969398;28;20031;-64
2022/10/30 03:37:17;;;;;;;30.63;12.77;;;17.30;99.90;;;;;;4965143;28;20042;-64
2022/10/30 03:39:43;;;;;;;31.05;11.52;;;15.50;99.90;;;;;;4940223;28;20052;-64
2022/10/30 03:42:09;;;;;;;30.42;12.20;;;17.50;99.90;;;;;;4942422;28;20038;-64
2022/10/30 03:44:34;;;;;;;35.22;12.07;;;15.70;99.90;;;;;;4965246;28;20475;-64
2022/10/30 03:47:00;;;;;;;38.78;12.88;;;16.90;99.90;;;;;;4969888;28;20408;-64
2022/10/30 03:49:25;;;;;;;40.90;13.65;;;16.50;99.90;;;;;;4955656;28;20393;-64
2022/10/30 03:51:51;;;;;;;36.03;12.13;;;17.50;99.90;;;;;;4954004;28;20392;-64
2022/10/30 03:54:17;;;;;;;27.88;11.77;;;16.90;99.90;;;;;;4958125;28;20610;-64
2022/10/30 03:56:44;;;;;;;32.28;11.43;;;17.40;99.90;;;;;;4972133;28;20513;-63
2022/10/30 03:59:09;;;;;;;36.15;13.02;;;15.20;99.90;;;;;;4946103;28;20047;-64
2022/10/30 04:01:35;;;;;;;40.72;12.35;;;16.50;99.90;;;;;;4962085;28;20047;-64
2022/10/30 04:04:00;;;;;;;43.38;13.00;;;17.00;99.90;;;;;;4963922;28;20030;-64
2022/10/30 04:06:26;;;;;;;26.50;11.63;;;15.70;99.90;;;;;;4963583;28;20114;-65
2022/10/30 04:08:54;;;;;;;37.92;11.88;;;15.40;99.90;;;;;;4958552;28;20054;-64
2022/10/30 04:11:19;;;;;;;29.15;10.95;;;15.10;99.90;;;;;;4947513;28;20135;-63
2022/10/30 04:13:45;;;;;;;26.13;11.40;;;16.20;99.90;;;;;;4961870;28;20055;-63
2022/10/30 04:16:10;;;;;;;38.13;12.52;;;15.20;99.90;;;;;;4957011;28;20058;-63
2022/10/30 04:18:36;;;;;;;27.80;12.52;;;15.20;99.90;;;;;;4967714;28;20129;-64
2022/10/30 04:21:01;;;;;;;30.50;11.88;;;16.60;99.90;;;;;;4969664;28;20053;-64
2022/10/30 04:23:27;;;;;;;28.42;11.80;;;17.20;99.90;;;;;;4970113;28;20047;-64
2022/10/30 04:25:52;;;;;;;34.10;12.55;;;15.00;99.90;;;;;;4969544;28;20440;-63
2022/10/30 04:28:20;;;;;;;29.63;12.55;;;17.40;99.90;;;;;;4966585;28;20041;-65
2022/10/30 04:30:46;;;;;;;31.48;11.57;;;16.40;99.90;;;;;;4953103;28;20195;-63
2022/10/30 04:33:12;;;;;;;28.75;11.18;;;16.80;99.90;;;;;;4965178;28;20403;-63
2022/10/30 04:35:39;;;;;;;26.48;11.07;;;16.90;99.90;;;;;;4967015;28;20088;-64
2022/10/30 04:38:10;;;;;;;31.02;12.55;;;14.70;99.90;;;;;;4963265;28;20040;-64
2022/10/30 04:40:38;;;;;;;27.70;12.60;;;15.60;99.90;;;;;;4965951;28;20061;-63
2022/10/30 04:43:04;;;;;;;30.30;13.70;;;15.10;99.90;;;;;;4966546;28;20035;-63
2022/10/30 04:45:30;;;;;;;32.70;14.02;;;16.00;99.90;;;;;;4961470;28;20031;-64
2022/10/30 04:48:05;;;;;;;28.20;12.95;;;16.20;99.90;;;;;;4959465;28;20062;-64
2022/10/30 04:50:32;;;;;;;33.40;13.63;;;16.30;99.90;;;;;;4964696;28;20444;-64
2022/10/30 04:53:03;;;;;;;24.63;13.02;;;16.30;99.90;;;;;;4964563;28;20054;-64
2022/10/30 04:55:29;;;;;;;32.30;13.70;;;15.50;99.90;;;;;;4970069;28;20501;-64
2022/10/30 04:57:57;;;;;;;30.92;13.55;;;14.30;99.90;;;;;;4969482;28;20437;-63
2022/10/30 05:00:23;;;;;;;23.45;12.50;;;15.40;99.90;;;;;;4959278;28;20038;-64
2022/10/30 05:02:49;;;;;;;30.27;13.20;;;16.00;99.90;;;;;;4962378;28;20438;-64
2022/10/30 05:05:14;;;;;;;25.58;13.32;;;14.70;99.90;;;;;;4950100;29;20166;-63
2022/10/30 05:07:40;;;;;;;28.30;12.98;;;15.90;99.90;;;;;;4971360;28;20039;-63
2022/10/30 05:10:06;;;;;;;28.77;13.40;;;14.50;99.90;;;;;;4964688;28;20035;-63
2022/10/30 05:12:31;;;;;;;26.45;11.30;;;15.00;99.90;;;;;;4962031;28;20159;-63
2022/10/30 05:14:57;;;;;;;35.15;10.98;;;14.40;99.90;;;;;;4947950;28;20039;-63
2022/10/30 05:17:22;;;;;;;26.85;11.98;;;13.60;99.90;;;;;;4971087;28;20055;-63
2022/10/30 05:19:48;;;;;;;27.23;12.23;;;15.30;99.90;;;;;;4953019;28;20490;-64
2022/10/30 05:22:13;;;;;;;35.85;13.27;;;15.20;99.90;;;;;;4970187;28;20587;-63
2022/10/30 05:24:39;;;;;;;21.92;12.70;;;14.60;99.90;;;;;;4965486;28;20043;-63
2022/10/30 05:27:04;;;;;;;23.38;12.82;;;15.20;99.90;;;;;;4956693;28;20050;-63
2022/10/30 05:29:30;;;;;;;28.77;12.77;;;13.30;99.90;;;;;;4953755;28;20050;-63
2022/10/30 05:31:55;;;;;;;32.30;13.57;;;13.40;99.90;;;;;;4958378;28;20071;-64
2022/10/30 05:34:21;;;;;;;33.38;14.02;;;13.20;99.90;;;;;;4958430;28;20042;-63
2022/10/30 05:36:46;;;;;;;31.92;14.27;;;15.30;99.90;;;;;;4965463;28;20792;-64
2022/10/30 05:39:12;;;;;;;31.50;14.05;;;14.70;99.90;;;;;;4966445;28;20031;-64
2022/10/30 05:41:37;;;;;;;31.33;13.10;;;13.30;99.90;;;;;;4969994;28;20453;-64
2022/10/30 05:44:03;;;;;;;28.88;13.32;;;13.30;99.90;;;;;;4956154;28;20066;-64
2022/10/30 05:46:29;;;;;;;58.92;14.13;;;14.80;99.90;;;;;;4960539;28;20038;-63
2022/10/30 05:48:54;;;;;;;35.30;13.57;;;15.00;99.90;;;;;;4938906;29;20047;-63
2022/10/30 05:51:20;;;;;;;108.30;14.30;;;13.60;99.90;;;;;;4932684;28;20138;-63
2022/10/30 05:53:48;;;;;;;76.28;12.98;;;14.90;99.90;;;;;;4963946;28;20129;-63
2022/10/30 05:56:13;;;;;;;24.05;12.05;;;13.00;99.90;;;;;;4952012;28;20043;-63
2022/10/30 05:58:39;;;;;;;38.28;13.48;;;14.60;99.90;;;;;;4955445;28;20378;-64
2022/10/30 06:01:07;;;;;;;32.88;12.25;;;14.80;99.90;;;;;;4965053;28;20409;-64
2022/10/30 06:03:33;;;;;;;23.55;12.63;;;14.20;99.90;;;;;;4947046;28;20482;-63
2022/10/30 06:05:58;;;;;;;31.13;13.00;;;13.00;99.90;;;;;;4971391;28;20051;-64
2022/10/30 06:08:24;;;;;;;23.15;12.55;;;13.00;99.90;;;;;;4956369;28;20051;-64
2022/10/30 06:10:49;;;;;;;23.83;12.45;;;13.00;99.90;;;;;;4954925;28;20051;-64
2022/10/30 06:13:15;;;;;;;25.48;11.82;;;14.90;99.90;;;;;;4951786;29;20043;-63
2022/10/30 06:15:41;;;;;;;32.95;11.68;;;14.50;99.90;;;;;;4968322;28;20089;-64
2022/10/30 06:18:06;;;;;;;25.60;11.73;;;13.60;99.90;;;;;;4962017;28;20046;-63
2022/10/30 06:20:32;;;;;;;19.00;12.57;;;13.20;99.90;;;;;;4969034;28;20440;-66
2022/10/30 06:22:59;;;;;;;25.58;11.93;;;14.10;99.90;;;;;;4962112;28;20053;-63
2022/10/30 06:25:26;;;;;;;52.60;11.82;;;15.10;99.90;;;;;;4972393;28;20039;-63
2022/10/30 06:27:51;;;;;;;24.20;11.63;;;15.20;99.90;;;;;;4967647;28;20034;-64
2022/10/30 06:30:17;;;;;;;53.30;11.20;;;12.90;99.90;;;;;;4958021;28;20041;-63
2022/10/30 06:32:43;;;;;;;28.45;11.30;;;13.40;99.90;;;;;;4955821;28;20115;-63
2022/10/30 06:35:09;;;;;;;25.42;11.75;;;14.40;99.90;;;;;;4972671;28;20055;-63
2022/10/30 06:37:38;;;;;;;33.20;12.07;;;12.70;99.90;;;;;;4962211;28;20047;-63
2022/10/30 06:40:05;;;;;;;32.05;13.68;;;13.20;99.90;;;;;;4966537;28;20123;-63
2022/10/30 06:42:31;;;;;;;30.88;13.50;;;13.80;99.90;;;;;;4947781;28;20066;-63
2022/10/30 06:44:56;;;;;;;26.00;13.77;;;14.60;99.90;;;;;;4957204;28;20073;-64
2022/10/30 06:47:22;;;;;;;27.10;12.95;;;13.30;99.90;;;;;;4966483;28;20051;-64
2022/10/30 06:49:47;;;;;;;38.00;13.40;;;14.20;99.90;;;;;;4957292;28;20050;-63
2022/10/30 06:52:13;;;;;;;27.27;13.02;;;14.20;99.90;;;;;;4946760;29;20130;-63
2022/10/30 06:54:38;;;;;;;29.45;13.55;;;14.80;99.90;;;;;;4969165;28;20126;-64
2022/10/30 06:57:04;;;;;;;36.15;14.18;;;14.20;99.90;;;;;;4962173;28;20133;-63
2022/10/30 06:59:29;;;;;;;32.20;14.60;;;14.00;99.90;;;;;;4961361;28;20375;-63
2022/10/30 07:01:55;;;;;;;34.75;15.43;;;13.60;99.90;;;;;;4963882;28;20463;-63
2022/10/30 07:04:21;;;;;;;31.75;14.80;;;13.00;99.90;;;;;;4958490;28;20105;-64
2022/10/30 07:06:46;;;;;;;25.75;14.85;;;13.00;99.90;;;;;;4966335;28;20047;-64
2022/10/30 07:09:12;;;;;;;25.60;14.05;;;13.00;99.90;;;;;;4965792;28;20035;-63
2022/10/30 07:11:41;;;;;;;25.52;13.40;;;14.30;99.90;;;;;;4966387;28;20039;-63
2022/10/30 07:14:06;;;;;;;29.77;14.90;;;15.00;99.90;;;;;;4943802;28;20780;-63
2022/10/30 07:16:32;;;;;;;33.05;13.80;;;13.20;99.90;;;;;;4963533;28;20051;-63
2022/10/30 07:18:57;;;;;;;26.98;14.18;;;15.00;99.90;;;;;;4954725;28;20043;-64
2022/10/30 07:21:25;;;;;;;34.13;14.57;;;14.40;99.90;;;;;;4928567;28;20041;-63
2022/10/30 07:23:50;;;;;;;31.10;14.80;;;13.30;99.90;;;;;;4963840;28;20038;-64
2022/10/30 07:26:16;;;;;;;38.95;15.32;;;15.60;99.90;;;;;;4953545;28;20448;-63
2022/10/30 07:28:41;;;;;;;32.65;14.85;;;14.40;99.90;;;;;;4954889;28;20051;-64
2022/10/30 07:31:07;;;;;;;35.58;15.73;;;15.50;99.90;;;;;;4966030;28;20043;-63
2022/10/30 07:33:32;;;;;;;37.13;15.35;;;15.30;99.90;;;;;;4965444;28;20121;-65
2022/10/30 07:36:02;;;;;;;34.75;15.55;;;15.70;99.90;;;;;;4944854;28;20613;-64
2022/10/30 07:38:28;;;;;;;31.73;15.57;;;14.90;99.90;;;;;;4965794;28;20035;-64
2022/10/30 07:40:53;;;;;;;26.33;13.85;;;14.20;99.90;;;;;;4956405;28;20460;-64
2022/10/30 07:43:19;;;;;;;35.58;13.98;;;16.30;99.90;;;;;;4949212;28;20558;-64
2022/10/30 07:45:45;;;;;;;35.38;16.35;;;15.50;99.90;;;;;;4961750;28;20043;-63
2022/10/30 07:48:11;;;;;;;31.38;15.15;;;15.30;99.90;;;;;;4967479;28;20389;-64
2022/10/30 07:50:36;;;;;;;29.77;15.55;;;14.40;99.90;;;;;;4947642;28;20049;-64
2022/10/30 07:53:02;;;;;;;37.08;16.90;;;16.90;99.90;;;;;;4959864;28;20034;-63
2022/10/30 07:55:27;;;;;;;29.52;15.60;;;15.40;99.90;;;;;;4970644;28;20073;-63
2022/10/30 07:57:53;;;;;;;28.58;14.73;;;16.00;99.90;;;;;;4962481;28;20031;-64
2022/10/30 08:00:19;;;;;;;35.28;14.90;;;17.00;99.90;;;;;;4962997;28;20386;-64
2022/10/30 08:02:49;;;;;;;32.78;14.57;;;17.40;99.90;;;;;;4966270;28;20035;-65
2022/10/30 08:05:15;;;;;;;29.58;14.98;;;15.50;99.90;;;;;;4971416;28;20042;-64
2022/10/30 08:07:40;;;;;;;32.65;13.27;;;16.90;99.90;;;;;;4958991;28;20094;-64
2022/10/30 08:10:07;;;;;;;30.33;13.90;;;15.80;99.90;;;;;;4962452;28;20031;-65
2022/10/30 08:12:33;;;;;;;28.58;12.25;;;16.30;99.90;;;;;;4956317;28;20512;-65
2022/10/30 08:14:59;;;;;;;26.38;12.55;;;17.40;99.90;;;;;;4967441;28;20093;-64
2022/10/30 08:17:25;;;;;;;21.02;11.82;;;18.30;99.90;;;;;;4964774;28;20054;-65
2022/10/30 08:19:50;;;;;;;35.40;12.13;;;16.60;99.90;;;;;;4960469;28;20049;-66
2022/10/30 08:22:16;;;;;;;32.42;12.70;;;16.60;99.90;;;;;;4966981;28;20035;-65
2022/10/30 08:24:43;;;;;;;34.15;13.55;;;17.50;99.90;;;;;;4939290;29;20110;-64
2022/10/30 08:27:09;;;;;;;27.75;13.02;;;18.70;99.90;;;;;;4948495;28;20042;-64
2022/10/30 08:29:34;;;;;;;25.65;12.73;;;17.40;99.90;;;;;;4975861;28;20042;-63
2022/10/30 08:32:00;;;;;;;25.77;13.07;;;18.90;99.90;;;;;;4953790;28;20050;-64
2022/10/30 08:34:26;;;;;;;25.02;12.60;;;16.80;99.90;;;;;;4958599;28;20045;-64
2022/10/30 08:36:52;;;;;;;27.02;12.13;;;18.30;99.90;;;;;;4974367;28;20493;-65
2022/10/30 08:39:18;;;;;;;29.77;12.25;;;18.50;99.90;;;;;;4957773;28;20105;-64
2022/10/30 08:41:44;;;;;;;23.15;12.18;;;17.40;99.90;;;;;;4966473;28;20531;-64
2022/10/30 08:44:10;;;;;;;27.25;12.65;;;17.70;99.90;;;;;;4958994;28;20075;-64
2022/10/30 08:46:36;;;;;;;27.30;12.50;;;19.10;99.90;;;;;;4974979;28;20070;-65
2022/10/30 08:49:02;;;;;;;28.20;12.55;;;17.30;99.90;;;;;;4939925;28;20544;-65
2022/10/30 08:51:31;;;;;;;27.88;12.68;;;18.30;99.90;;;;;;4946936;28;20070;-65
2022/10/30 08:53:57;;;;;;;32.47;13.35;;;18.00;99.90;;;;;;4968587;28;20070;-65
2022/10/30 08:56:22;;;;;;;29.40;12.18;;;19.30;99.90;;;;;;4968607;28;20074;-65
2022/10/30 08:58:49;;;;;;;24.98;11.68;;;19.30;99.90;;;;;;4944630;28;20039;-67
2022/10/30 09:01:15;;;;;;;24.42;11.23;;;18.10;99.90;;;;;;4949063;28;20038;-67
2022/10/30 09:03:41;;;;;;;26.88;11.93;;;19.10;99.90;;;;;;4967893;28;20070;-65
2022/10/30 09:06:07;;;;;;;33.22;13.00;;;18.00;99.90;;;;;;4947718;28;20047;-65
2022/10/30 09:08:33;;;;;;;23.60;11.93;;;19.60;99.90;;;;;;4969379;28;20468;-66
2022/10/30 09:10:59;;;;;;;34.90;12.88;;;18.80;99.90;;;;;;4945796;28;20057;-67
2022/10/30 09:13:25;;;;;;;27.20;12.73;;;18.60;99.90;;;;;;4953660;28;20062;-67
2022/10/30 09:15:51;;;;;;;23.55;11.80;;;19.40;99.90;;;;;;4965838;28;20126;-66
2022/10/30 09:18:17;;;;;;;22.50;10.70;;;19.70;99.90;;;;;;4947051;28;20433;-69
2022/10/30 09:20:42;;;;;;;28.85;11.98;;;19.70;99.90;;;;;;4945590;28;20393;-67
2022/10/30 09:23:08;;;;;;;24.85;12.52;;;18.60;99.90;;;;;;4945204;29;20035;-66
2022/10/30 09:25:34;;;;;;;25.60;11.82;;;19.70;99.90;;;;;;4942938;28;20054;-67
2022/10/30 09:27:59;;;;;;;26.63;12.70;;;20.00;99.90;;;;;;4966865;28;20038;-67
2022/10/30 09:30:25;;;;;;;28.85;11.77;;;19.80;99.90;;;;;;4963658;28;20121;-65
2022/10/30 09:32:58;;;;;;;27.90;13.35;;;19.10;99.90;;;;;;4934261;28;20039;-65
2022/10/30 09:35:24;;;;;;;24.67;11.60;;;19.80;99.90;;;;;;4942918;28;20050;-64
2022/10/30 09:37:50;;;;;;;24.33;11.68;;;20.20;99.90;;;;;;4947632;28;20454;-64
2022/10/30 09:40:28;;;;;;;29.67;12.13;;;19.80;99.90;;;;;;4962593;28;20059;-65
2022/10/30 09:43:00;;;;;;;23.42;11.30;;;19.30;99.90;;;;;;4957920;28;20468;-65
2022/10/30 09:45:31;;;;;;;34.80;12.30;;;19.30;99.90;;;;;;4949339;28;20043;-65
2022/10/30 09:48:10;;;;;;;23.13;11.68;;;19.70;99.90;;;;;;4949303;28;20043;-66
2022/10/30 09:51:01;;;;;;;24.17;11.90;;;20.40;99.90;;;;;;4952209;28;20054;-65
2022/10/30 09:53:53;;;;;;;21.30;10.90;;;19.70;99.90;;;;;;4947380;28;20035;-65
2022/10/30 09:56:25;;;;;;;30.67;12.32;;;20.00;99.90;;;;;;4949709;28;20039;-65
2022/10/30 09:59:28;;;;;;;33.55;11.07;;;20.20;99.90;;;;;;4943832;28;20498;-65
2022/10/30 10:02:13;;;;;;;33.22;11.38;;;20.40;99.90;;;;;;4949038;28;20118;-65
2022/10/30 10:04:43;;;;;;;28.75;11.38;;;19.80;99.90;;;;;;4947958;28;20047;-65
2022/10/30 10:07:15;;;;;;;32.33;11.80;;;19.70;99.90;;;;;;4948552;28;20066;-65
2022/10/30 10:09:42;;;;;;;28.38;11.77;;;20.70;99.90;;;;;;4963345;28;20034;-66
2022/10/30 10:12:16;;;;;;;30.33;12.30;;;19.90;99.90;;;;;;4946259;28;20054;-63
2022/10/30 10:14:45;;;;;;;26.83;12.13;;;20.40;99.90;;;;;;4958871;28;20046;-63
2022/10/30 10:17:22;;;;;;;28.73;11.88;;;21.00;99.90;;;;;;4962456;28;20579;-63
2022/10/30 10:20:00;;;;;;;22.88;11.57;;;20.90;99.90;;;;;;4958553;28;20047;-63
2022/10/30 10:22:33;;;;;;;26.33;10.77;;;20.90;99.90;;;;;;4966363;28;20039;-64
2022/10/30 10:24:58;;;;;;;30.52;10.68;;;20.40;99.90;;;;;;4967488;28;20416;-63
2022/10/30 10:27:52;;;;;;;22.80;10.40;;;20.40;99.90;;;;;;4967588;28;20053;-62
2022/10/30 10:30:20;;;;;;;22.17;10.40;;;20.40;99.90;;;;;;4965458;28;20049;-64
2022/10/30 10:33:19;;;;;;;25.10;10.85;;;21.10;99.90;;;;;;4960313;28;20074;-64
2022/10/30 10:35:51;;;;;;;25.55;9.93;;;21.10;99.90;;;;;;4967332;28;20070;-64
2022/10/30 10:38:30;;;;;;;29.65;10.40;;;21.10;99.90;;;;;;4928289;28;20073;-64
2022/10/30 10:41:14;;;;;;;25.08;10.65;;;20.50;99.90;;;;;;4961284;28;20063;-63
2022/10/30 10:44:13;;;;;;;38.17;11.10;;;21.20;99.90;;;;;;4958661;28;20037;-64
2022/10/30 10:47:03;;;;;;;19.20;9.50;;;21.40;99.90;;;;;;4965736;28;20501;-64
2022/10/30 10:49:41;;;;;;;22.85;10.35;;;21.10;99.90;;;;;;4964790;28;20089;-63
2022/10/30 10:52:31;;;;;;;25.55;11.18;;;21.10;99.90;;;;;;4956056;28;20126;-67
2022/10/30 10:55:04;;;;;;;28.67;10.85;;;20.80;99.90;;;;;;4965056;28;20047;-64
2022/10/30 10:57:36;;;;;;;29.90;11.02;;;21.50;99.90;;;;;;4958548;28;20142;-64
2022/10/30 11:00:05;;;;;;;21.70;10.95;;;20.90;99.90;;;;;;4962071;28;20074;-63
2022/10/30 11:02:39;;;;;;;23.75;11.15;;;20.70;99.90;;;;;;4945956;28;20046;-63
2022/10/30 11:05:36;;;;;;;25.08;10.32;;;20.90;99.90;;;;;;4952714;28;20043;-64
2022/10/30 11:08:26;;;;;;;25.95;10.95;;;21.40;99.90;;;;;;4960670;28;20125;-63
2022/10/30 11:11:00;;;;;;;30.52;11.85;;;20.80;99.90;;;;;;4950574;28;20039;-63
2022/10/30 11:13:43;;;;;;;29.95;11.45;;;20.60;99.90;;;;;;5086121;28;20397;-62
2022/10/30 11:16:22;;;;;;;24.38;11.75;;;20.60;99.90;;;;;;5063333;28;20467;-64
2022/10/30 11:18:53;;;;;;;28.63;11.00;;;21.40;99.90;;;;;;5068184;28;20041;-63
2022/10/30 11:21:23;;;;;;;27.52;11.55;;;21.00;99.90;;;;;;5064786;28;20037;-65
2022/10/30 11:23:50;;;;;;;30.70;11.93;;;20.50;99.90;;;;;;5071143;28;20053;-65
2022/10/30 11:26:24;;;;;;;24.13;9.80;;;20.60;99.90;;;;;;5070856;28;20121;-64
2022/10/30 11:28:53;;;;;;;26.98;9.07;;;21.10;99.90;;;;;;5050466;28;20094;-65
2022/10/30 11:31:39;;;;;;;24.48;9.80;;;21.30;99.90;;;;;;5065684;28;20040;-64
2022/10/30 11:34:30;;;;;;;26.33;10.30;;;21.30;99.90;;;;;;5066097;28;20041;-65
2022/10/30 11:36:56;;;;;;;30.65;9.50;;;21.30;99.90;;;;;;5066260;28;20043;-64
2022/10/30 11:39:27;;;;;;;25.42;9.55;;;20.90;99.90;;;;;;5067370;28;20041;-65
2022/10/30 11:42:15;;;;;;;23.20;9.82;;;21.20;99.90;;;;;;5072274;28;20632;-64
2022/10/30 11:44:48;;;;;;;29.33;10.00;;;20.80;99.90;;;;;;5067931;28;20060;-64
2022/10/30 11:47:15;;;;;;;19.00;9.02;;;21.40;99.90;;;;;;5065970;28;20063;-64
2022/10/30 11:49:51;;;;;;;25.10;8.98;;;21.50;99.90;;;;;;5066574;28;20072;-65
2022/10/30 11:52:19;;;;;;;29.73;10.02;;;21.40;99.90;;;;;;5066792;28;20040;-65
2022/10/30 11:54:51;;;;;;;21.90;8.20;;;21.00;99.90;;;;;;5062991;28;20032;-64
2022/10/30 11:57:22;;;;;;;19.50;8.43;;;21.00;99.90;;;;;;5062577;28;20033;-64
2022/10/30 11:59:50;;;;;;;24.60;10.15;;;21.80;99.90;;;;;;5067021;28;20440;-64
2022/10/30 12:02:28;;;;;;;20.77;8.95;;;21.20;99.90;;;;;;5071222;28;20036;-64
2022/10/30 12:05:01;;;;;;;23.98;8.88;;;21.60;99.90;;;;;;5070862;28;20048;-64
2022/10/30 12:07:32;;;;;;;22.00;9.32;;;21.50;99.90;;;;;;5065584;28;20179;-64
2022/10/30 12:09:59;;;;;;;23.92;9.23;;;21.30;99.90;;;;;;5065857;28;20398;-64
2022/10/30 12:12:41;;;;;;;22.52;8.65;;;21.40;99.90;;;;;;5065477;28;20064;-64
2022/10/30 12:15:12;;;;;;;24.35;8.95;;;21.30;99.90;;;;;;5067256;28;20067;-63
2022/10/30 12:17:39;;;;;;;24.27;8.82;;;20.90;99.90;;;;;;5064604;28;20052;-65
2022/10/30 12:20:07;;;;;;;35.35;8.93;;;20.80;99.90;;;;;;5060479;28;20410;-64
2022/10/30 12:22:33;;;;;;;21.85;9.63;;;21.00;99.90;;;;;;5062694;28;20045;-64
2022/10/30 12:25:02;;;;;;;28.42;9.38;;;20.80;99.90;;;;;;5053207;28;20099;-64
2022/10/30 12:27:31;;;;;;;21.02;8.80;;;21.20;99.90;;;;;;5054382;28;20040;-64
2022/10/30 12:30:05;;;;;;;19.30;7.20;;;20.80;99.90;;;;;;5049788;28;20128;-64
2022/10/30 12:33:02;;;;;;;15.48;6.88;;;21.00;99.90;;;;;;5051931;28;20052;-64
2022/10/30 12:35:41;;;;;;;15.45;6.60;;;20.60;99.90;;;;;;5054768;28;20033;-63
2022/10/30 12:38:21;;;;;;;20.48;8.35;;;20.70;99.90;;;;;;5047903;28;20036;-63